sensor_id;sensor_type;location;lat;lon;timestamp;temperature;humidity
26262;DHT22;13988;52.446;13.280;2023-04-25T00:00:26;8.60;99.90
26262;DHT22;13988;52.446;13.280;2023-04-25T00:02:51;8.30;99.90
26262;DHT22;13988;52.446;13.280;2023-04-25T00:05:17;8.30;99.90
26262;DHT22;13988;52.446;13.280;2023-04-25T00:07:43;8.30;99.90
26262;DHT22;13988;52.446;13.280;2023-04-25T00:10:09;8.30;99.90
26262;DHT22;13988;52.446;13.280;2023-04-25T00:12:36;8.30;99.90
26262;DHT22;13988;52.446;13.280;2023-04-25T00:15:03;8.40;99.90
26262;DHT22;13988;52.446;13.280;2023-04-25T00:17:29;8.40;99.90
26262;DHT22;13988;52.446;13.280;2023-04-25T00:19:54;8.50;99.90
26262;DHT22;13988;52.446;13.280;2023-04-25T00:22:21;8.40;99.90
26262;DHT22;13988;52.446;13.280;2023-04-25T00:24:46;8.40;99.90
26262;DHT22;13988;52.446;13.280;2023-04-25T00:27:12;8.50;99.90
26262;DHT22;13988;52.446;13.280;2023-04-25T00:29:38;8.50;99.90
26262;DHT22;13988;52.446;13.280;2023-04-25T00:32:03;8.50;99.90
26262;DHT22;13988;52.446;13.280;2023-04-25T00:34:29;8.50;99.90
26262;DHT22;13988;52.446;13.280;2023-04-25T00:36:55;8.60;99.90
26262;DHT22;13988;52.446;13.280;2023-04-25T00:39:20;8.50;99.90
26262;DHT22;13988;52.446;13.280;2023-04-25T00:41:46;8.50;99.90
26262;DHT22;13988;52.446;13.280;2023-04-25T00:44:13;8.60;99.90
26262;DHT22;13988;52.446;13.280;2023-04-25T00:46:42;8.60;99.90
26262;DHT22;13988;52.446;13.280;2023-04-25T00:49:09;8.60;99.90
26262;DHT22;13988;52.446;13.280;2023-04-25T00:51:40;8.60;99.90
26262;DHT22;13988;52.446;13.280;2023-04-25T00:54:06;8.60;99.90
26262;DHT22;13988;52.446;13.280;2023-04-25T00:56:32;8.50;99.90
26262;DHT22;13988;52.446;13.280;2023-04-25T00:58:58;8.50;99.90
26262;DHT22;13988;52.446;13.280;2023-04-25T01:01:24;8.50;99.90
26262;DHT22;13988;52.446;13.280;2023-04-25T01:03:50;8.50;99.90
26262;DHT22;13988;52.446;13.280;2023-04-25T01:06:16;8.50;99.90
26262;DHT22;13988;52.446;13.280;2023-04-25T01:08:42;8.50;99.90
26262;DHT22;13988;52.446;13.280;2023-04-25T01:11:08;8.50;99.90
26262;DHT22;13988;52.446;13.280;2023-04-25T01:13:34;8.50;99.90
26262;DHT22;13988;52.446;13.280;2023-04-25T01:16:01;8.50;99.90
26262;DHT22;13988;52.446;13.280;2023-04-25T01:18:27;8.50;99.90
26262;DHT22;13988;52.446;13.280;2023-04-25T01:20:53;8.50;99.90
26262;DHT22;13988;52.446;13.280;2023-04-25T01:23:20;8.50;99.90
26262;DHT22;13988;52.446;13.280;2023-04-25T01:25:47;8.50;99.90
26262;DHT22;13988;52.446;13.280;2023-04-25T01:28:13;8.50;99.90
26262;DHT22;13988;52.446;13.280;2023-04-25T01:30:39;8.50;99.90
26262;DHT22;13988;52.446;13.280;2023-04-25T01:33:05;8.50;99.90
26262;DHT22;13988;52.446;13.280;2023-04-25T01:35:31;8.50;99.90
26262;DHT22;13988;52.446;13.280;2023-04-25T01:37:57;8.50;99.90
26262;DHT22;13988;52.446;13.280;2023-04-25T01:40:24;8.50;99.90
26262;DHT22;13988;52.446;13.280;2023-04-25T01:42:49;8.50;99.90
26262;DHT22;13988;52.446;13.280;2023-04-25T01:45:16;8.40;99.90
26262;DHT22;13988;52.446;13.280;2023-04-25T01:47:42;8.50;99.90
26262;DHT22;13988;52.446;13.280;2023-04-25T01:50:09;8.40;99.90
26262;DHT22;13988;52.446;13.280;2023-04-25T01:52:35;8.40;99.90
26262;DHT22;13988;52.446;13.280;2023-04-25T01:55:04;8.40;99.90
26262;DHT22;13988;52.446;13.280;2023-04-25T01:57:29;8.40;99.90
26262;DHT22;13988;52.446;13.280;2023-04-25T01:59:59;8.50;99.90
26262;DHT22;13988;52.446;13.280;2023-04-25T02:02:25;8.50;99.90
26262;DHT22;13988;52.446;13.280;2023-04-25T02:04:51;8.50;99.90
26262;DHT22;13988;52.446;13.280;2023-04-25T02:07:17;8.50;99.90
26262;DHT22;13988;52.446;13.280;2023-04-25T02:09:43;8.50;99.90
26262;DHT22;13988;52.446;13.280;2023-04-25T02:12:10;8.50;99.90
26262;DHT22;13988;52.446;13.280;2023-04-25T02:14:36;8.50;99.90
26262;DHT22;13988;52.446;13.280;2023-04-25T02:17:02;8.40;99.90
26262;DHT22;13988;52.446;13.280;2023-04-25T02:19:27;8.40;99.90
26262;DHT22;13988;52.446;13.280;2023-04-25T02:21:53;8.40;99.90
26262;DHT22;13988;52.446;13.280;2023-04-25T02:24:19;8.40;99.90
26262;DHT22;13988;52.446;13.280;2023-04-25T02:26:45;8.40;99.90
26262;DHT22;13988;52.446;13.280;2023-04-25T02:29:12;8.30;99.90
26262;DHT22;13988;52.446;13.280;2023-04-25T02:31:38;8.40;99.90
26262;DHT22;13988;52.446;13.280;2023-04-25T02:34:03;8.40;99.90
26262;DHT22;13988;52.446;13.280;2023-04-25T02:36:30;8.40;99.90
26262;DHT22;13988;52.446;13.280;2023-04-25T02:38:59;8.40;99.90
26262;DHT22;13988;52.446;13.280;2023-04-25T02:41:25;8.30;99.90
26262;DHT22;13988;52.446;13.280;2023-04-25T02:43:51;8.30;99.90
26262;DHT22;13988;52.446;13.280;2023-04-25T02:46:17;8.30;99.90
26262;DHT22;13988;52.446;13.280;2023-04-25T02:48:42;8.30;99.90
26262;DHT22;13988;52.446;13.280;2023-04-25T02:51:08;8.30;99.90
26262;DHT22;13988;52.446;13.280;2023-04-25T02:53:34;8.20;99.90
26262;DHT22;13988;52.446;13.280;2023-04-25T02:56:00;8.20;99.90
26262;DHT22;13988;52.446;13.280;2023-04-25T02:58:26;8.20;99.90
26262;DHT22;13988;52.446;13.280;2023-04-25T03:00:51;8.20;99.90
26262;DHT22;13988;52.446;13.280;2023-04-25T03:03:17;8.20;99.90
26262;DHT22;13988;52.446;13.280;2023-04-25T03:05:43;8.20;99.90
26262;DHT22;13988;52.446;13.280;2023-04-25T03:08:10;8.20;99.90
26262;DHT22;13988;52.446;13.280;2023-04-25T03:10:36;8.20;99.90
26262;DHT22;13988;52.446;13.280;2023-04-25T03:13:01;8.20;99.90
26262;DHT22;13988;52.446;13.280;2023-04-25T03:15:27;8.20;99.90
26262;DHT22;13988;52.446;13.280;2023-04-25T03:17:52;8.20;99.90
26262;DHT22;13988;52.446;13.280;2023-04-25T03:20:18;8.20;99.90
26262;DHT22;13988;52.446;13.280;2023-04-25T03:22:44;8.20;99.90
26262;DHT22;13988;52.446;13.280;2023-04-25T03:25:10;8.10;99.90
26262;DHT22;13988;52.446;13.280;2023-04-25T03:27:36;8.10;99.90
26262;DHT22;13988;52.446;13.280;2023-04-25T03:30:01;8.10;99.90
26262;DHT22;13988;52.446;13.280;2023-04-25T03:32:27;8.10;99.90
26262;DHT22;13988;52.446;13.280;2023-04-25T03:34:53;8.10;99.90
26262;DHT22;13988;52.446;13.280;2023-04-25T03:37:18;8.10;99.90
26262;DHT22;13988;52.446;13.280;2023-04-25T03:39:44;8.20;99.90
26262;DHT22;13988;52.446;13.280;2023-04-25T03:42:10;8.10;99.90
26262;DHT22;13988;52.446;13.280;2023-04-25T03:44:35;8.10;99.90
26262;DHT22;13988;52.446;13.280;2023-04-25T03:47:01;8.10;99.90
26262;DHT22;13988;52.446;13.280;2023-04-25T03:49:27;8.10;99.90
26262;DHT22;13988;52.446;13.280;2023-04-25T03:51:52;8.20;99.90
26262;DHT22;13988;52.446;13.280;2023-04-25T03:54:18;8.10;99.90
26262;DHT22;13988;52.446;13.280;2023-04-25T03:56:43;8.10;99.90
26262;DHT22;13988;52.446;13.280;2023-04-25T03:59:09;8.10;99.90
26262;DHT22;13988;52.446;13.280;2023-04-25T04:01:35;8.00;99.90
26262;DHT22;13988;52.446;13.280;2023-04-25T04:04:00;8.00;99.90
26262;DHT22;13988;52.446;13.280;2023-04-25T04:06:26;8.00;99.90
26262;DHT22;13988;52.446;13.280;2023-04-25T04:08:52;8.00;99.90
26262;DHT22;13988;52.446;13.280;2023-04-25T04:11:17;8.00;99.90
26262;DHT22;13988;52.446;13.280;2023-04-25T04:13:43;8.00;99.90
26262;DHT22;13988;52.446;13.280;2023-04-25T04:16:09;7.90;99.90
26262;DHT22;13988;52.446;13.280;2023-04-25T04:18:34;8.00;99.90
26262;DHT22;13988;52.446;13.280;2023-04-25T04:21:01;8.00;99.90
26262;DHT22;13988;52.446;13.280;2023-04-25T04:23:26;8.00;99.90
26262;DHT22;13988;52.446;13.280;2023-04-25T04:25:54;8.00;99.90
26262;DHT22;13988;52.446;13.280;2023-04-25T04:28:20;8.00;99.90
26262;DHT22;13988;52.446;13.280;2023-04-25T04:30:47;8.10;99.90
26262;DHT22;13988;52.446;13.280;2023-04-25T04:33:13;8.10;99.90
26262;DHT22;13988;52.446;13.280;2023-04-25T04:35:40;8.00;99.90
26262;DHT22;13988;52.446;13.280;2023-04-25T04:38:07;8.10;99.90
26262;DHT22;13988;52.446;13.280;2023-04-25T04:40:32;8.10;99.90
26262;DHT22;13988;52.446;13.280;2023-04-25T04:42:58;8.20;99.90
26262;DHT22;13988;52.446;13.280;2023-04-25T04:45:24;8.20;99.90
26262;DHT22;13988;52.446;13.280;2023-04-25T04:47:50;8.20;99.90
26262;DHT22;13988;52.446;13.280;2023-04-25T04:50:16;8.20;99.90
26262;DHT22;13988;52.446;13.280;2023-04-25T04:52:42;8.20;99.90
26262;DHT22;13988;52.446;13.280;2023-04-25T04:55:08;8.40;99.90
26262;DHT22;13988;52.446;13.280;2023-04-25T04:57:34;8.20;99.90
26262;DHT22;13988;52.446;13.280;2023-04-25T05:00:00;8.30;99.90
26262;DHT22;13988;52.446;13.280;2023-04-25T05:02:26;8.20;99.90
26262;DHT22;13988;52.446;13.280;2023-04-25T05:04:52;8.30;99.90
26262;DHT22;13988;52.446;13.280;2023-04-25T05:07:18;8.30;99.90
26262;DHT22;13988;52.446;13.280;2023-04-25T05:09:44;8.30;99.90
26262;DHT22;13988;52.446;13.280;2023-04-25T05:12:10;8.30;99.90
26262;DHT22;13988;52.446;13.280;2023-04-25T05:14:36;8.30;99.90
26262;DHT22;13988;52.446;13.280;2023-04-25T05:17:01;8.20;99.90
26262;DHT22;13988;52.446;13.280;2023-04-25T05:19:30;8.30;99.90
26262;DHT22;13988;52.446;13.280;2023-04-25T05:21:55;8.30;99.90
26262;DHT22;13988;52.446;13.280;2023-04-25T05:24:21;8.20;99.90
26262;DHT22;13988;52.446;13.280;2023-04-25T05:26:47;8.30;99.90
26262;DHT22;13988;52.446;13.280;2023-04-25T05:29:12;8.30;99.90
26262;DHT22;13988;52.446;13.280;2023-04-25T05:31:38;8.40;99.90
26262;DHT22;13988;52.446;13.280;2023-04-25T05:34:03;8.40;99.90
26262;DHT22;13988;52.446;13.280;2023-04-25T05:36:29;8.50;99.90
26262;DHT22;13988;52.446;13.280;2023-04-25T05:38:56;8.40;99.90
26262;DHT22;13988;52.446;13.280;2023-04-25T05:41:22;8.40;99.90
26262;DHT22;13988;52.446;13.280;2023-04-25T05:43:47;8.50;99.90
26262;DHT22;13988;52.446;13.280;2023-04-25T05:46:15;8.60;99.90
26262;DHT22;13988;52.446;13.280;2023-04-25T05:48:42;8.60;99.90
26262;DHT22;13988;52.446;13.280;2023-04-25T05:51:08;8.50;99.90
26262;DHT22;13988;52.446;13.280;2023-04-25T05:53:34;8.50;99.90
26262;DHT22;13988;52.446;13.280;2023-04-25T05:56:00;8.30;99.90
26262;DHT22;13988;52.446;13.280;2023-04-25T05:58:26;8.50;99.90
26262;DHT22;13988;52.446;13.280;2023-04-25T06:00:52;8.30;99.90
26262;DHT22;13988;52.446;13.280;2023-04-25T06:03:18;8.20;99.90
26262;DHT22;13988;52.446;13.280;2023-04-25T06:05:43;8.40;99.90
26262;DHT22;13988;52.446;13.280;2023-04-25T06:08:09;8.50;99.90
26262;DHT22;13988;52.446;13.280;2023-04-25T06:10:36;8.40;99.90
26262;DHT22;13988;52.446;13.280;2023-04-25T06:13:02;8.50;99.90
26262;DHT22;13988;52.446;13.280;2023-04-25T06:15:27;8.70;99.90
26262;DHT22;13988;52.446;13.280;2023-04-25T06:17:53;8.70;99.90
26262;DHT22;13988;52.446;13.280;2023-04-25T06:20:19;8.70;99.90
26262;DHT22;13988;52.446;13.280;2023-04-25T06:22:48;8.70;99.90
26262;DHT22;13988;52.446;13.280;2023-04-25T06:25:15;8.80;99.90
26262;DHT22;13988;52.446;13.280;2023-04-25T06:27:40;8.60;99.90
26262;DHT22;13988;52.446;13.280;2023-04-25T06:30:06;8.50;99.90
26262;DHT22;13988;52.446;13.280;2023-04-25T06:32:32;8.50;99.90
26262;DHT22;13988;52.446;13.280;2023-04-25T06:34:59;8.50;99.90
26262;DHT22;13988;52.446;13.280;2023-04-25T06:37:25;8.50;99.90
26262;DHT22;13988;52.446;13.280;2023-04-25T06:39:51;8.40;99.90
26262;DHT22;13988;52.446;13.280;2023-04-25T06:42:16;8.50;99.90
26262;DHT22;13988;52.446;13.280;2023-04-25T06:44:42;8.40;99.90
26262;DHT22;13988;52.446;13.280;2023-04-25T06:47:08;8.60;99.90
26262;DHT22;13988;52.446;13.280;2023-04-25T06:49:33;8.70;99.90
26262;DHT22;13988;52.446;13.280;2023-04-25T06:51:59;8.60;99.90
26262;DHT22;13988;52.446;13.280;2023-04-25T06:54:25;8.70;99.90
26262;DHT22;13988;52.446;13.280;2023-04-25T06:56:53;8.60;99.90
26262;DHT22;13988;52.446;13.280;2023-04-25T06:59:18;8.60;99.90
26262;DHT22;13988;52.446;13.280;2023-04-25T07:01:44;8.60;99.90
26262;DHT22;13988;52.446;13.280;2023-04-25T07:04:10;8.50;99.90
26262;DHT22;13988;52.446;13.280;2023-04-25T07:06:36;8.40;99.90
26262;DHT22;13988;52.446;13.280;2023-04-25T07:09:10;8.60;99.90
26262;DHT22;13988;52.446;13.280;2023-04-25T07:11:36;8.40;99.90
26262;DHT22;13988;52.446;13.280;2023-04-25T07:14:02;8.00;99.90
26262;DHT22;13988;52.446;13.280;2023-04-25T07:16:28;8.10;99.90
26262;DHT22;13988;52.446;13.280;2023-04-25T07:18:54;8.20;99.90
26262;DHT22;13988;52.446;13.280;2023-04-25T07:21:20;8.30;99.90
26262;DHT22;13988;52.446;13.280;2023-04-25T07:23:45;8.20;99.90
26262;DHT22;13988;52.446;13.280;2023-04-25T07:26:12;8.20;99.90
26262;DHT22;13988;52.446;13.280;2023-04-25T07:28:37;8.30;99.90
26262;DHT22;13988;52.446;13.280;2023-04-25T07:31:03;8.30;99.90
26262;DHT22;13988;52.446;13.280;2023-04-25T07:33:29;8.20;99.90
26262;DHT22;13988;52.446;13.280;2023-04-25T07:35:55;8.20;99.90
26262;DHT22;13988;52.446;13.280;2023-04-25T07:38:21;8.40;99.90
26262;DHT22;13988;52.446;13.280;2023-04-25T07:40:48;8.30;99.90
26262;DHT22;13988;52.446;13.280;2023-04-25T07:43:14;8.40;99.90
26262;DHT22;13988;52.446;13.280;2023-04-25T07:45:45;8.40;99.90
26262;DHT22;13988;52.446;13.280;2023-04-25T07:48:11;8.30;99.90
26262;DHT22;13988;52.446;13.280;2023-04-25T07:50:37;8.30;99.90
26262;DHT22;13988;52.446;13.280;2023-04-25T07:53:02;8.20;99.90
26262;DHT22;13988;52.446;13.280;2023-04-25T07:55:28;8.30;99.90
26262;DHT22;13988;52.446;13.280;2023-04-25T07:57:54;8.40;99.90
26262;DHT22;13988;52.446;13.280;2023-04-25T08:00:20;8.70;99.90
26262;DHT22;13988;52.446;13.280;2023-04-25T08:02:45;8.80;99.90
26262;DHT22;13988;52.446;13.280;2023-04-25T08:05:11;9.10;99.90
26262;DHT22;13988;52.446;13.280;2023-04-25T08:07:40;8.80;99.90
26262;DHT22;13988;52.446;13.280;2023-04-25T08:10:06;8.60;99.90
26262;DHT22;13988;52.446;13.280;2023-04-25T08:12:32;8.40;99.90
26262;DHT22;13988;52.446;13.280;2023-04-25T08:14:58;8.60;99.90
26262;DHT22;13988;52.446;13.280;2023-04-25T08:17:23;8.80;99.90
26262;DHT22;13988;52.446;13.280;2023-04-25T08:19:49;9.20;99.90
26262;DHT22;13988;52.446;13.280;2023-04-25T08:22:15;9.90;99.90
26262;DHT22;13988;52.446;13.280;2023-04-25T08:24:41;10.20;99.90
26262;DHT22;13988;52.446;13.280;2023-04-25T08:27:07;10.20;99.90
26262;DHT22;13988;52.446;13.280;2023-04-25T08:29:33;10.20;99.90
26262;DHT22;13988;52.446;13.280;2023-04-25T08:31:59;9.90;99.90
26262;DHT22;13988;52.446;13.280;2023-04-25T08:34:25;9.60;99.90
26262;DHT22;13988;52.446;13.280;2023-04-25T08:36:51;9.40;99.90
26262;DHT22;13988;52.446;13.280;2023-04-25T08:39:17;9.30;99.90
26262;DHT22;13988;52.446;13.280;2023-04-25T08:41:43;9.20;99.90
26262;DHT22;13988;52.446;13.280;2023-04-25T08:44:12;9.20;99.90
26262;DHT22;13988;52.446;13.280;2023-04-25T08:46:39;9.40;99.90
26262;DHT22;13988;52.446;13.280;2023-04-25T08:49:08;9.60;99.90
26262;DHT22;13988;52.446;13.280;2023-04-25T08:51:45;9.40;99.90
26262;DHT22;13988;52.446;13.280;2023-04-25T08:54:13;9.90;99.90
26262;DHT22;13988;52.446;13.280;2023-04-25T08:56:47;9.50;99.90
26262;DHT22;13988;52.446;13.280;2023-04-25T08:59:13;10.00;99.90
26262;DHT22;13988;52.446;13.280;2023-04-25T09:01:39;9.80;99.90
26262;DHT22;13988;52.446;13.280;2023-04-25T09:04:05;9.90;99.90
26262;DHT22;13988;52.446;13.280;2023-04-25T09:06:31;10.10;99.90
26262;DHT22;13988;52.446;13.280;2023-04-25T09:09:04;9.70;99.90
26262;DHT22;13988;52.446;13.280;2023-04-25T09:11:31;10.00;99.90
26262;DHT22;13988;52.446;13.280;2023-04-25T09:14:17;10.50;99.90
26262;DHT22;13988;52.446;13.280;2023-04-25T09:16:59;10.70;99.90
26262;DHT22;13988;52.446;13.280;2023-04-25T09:19:32;10.30;99.90
26262;DHT22;13988;52.446;13.280;2023-04-25T09:22:02;10.70;99.90
26262;DHT22;13988;52.446;13.280;2023-04-25T09:24:38;10.60;99.90
26262;DHT22;13988;52.446;13.280;2023-04-25T09:27:05;10.80;99.90
26262;DHT22;13988;52.446;13.280;2023-04-25T09:29:36;10.70;99.90
26262;DHT22;13988;52.446;13.280;2023-04-25T09:32:24;10.80;99.90
26262;DHT22;13988;52.446;13.280;2023-04-25T09:34:55;10.40;99.90
26262;DHT22;13988;52.446;13.280;2023-04-25T09:37:22;10.60;99.90
26262;DHT22;13988;52.446;13.280;2023-04-25T09:39:50;10.60;99.90
26262;DHT22;13988;52.446;13.280;2023-04-25T09:42:16;10.70;99.90
26262;DHT22;13988;52.446;13.280;2023-04-25T09:44:46;10.30;99.90
26262;DHT22;13988;52.446;13.280;2023-04-25T09:47:15;10.50;99.90
26262;DHT22;13988;52.446;13.280;2023-04-25T09:49:43;10.80;99.90
26262;DHT22;13988;52.446;13.280;2023-04-25T09:52:20;10.70;99.90
26262;DHT22;13988;52.446;13.280;2023-04-25T09:54:47;10.60;99.90
26262;DHT22;13988;52.446;13.280;2023-04-25T09:57:24;10.90;99.90
26262;DHT22;13988;52.446;13.280;2023-04-25T09:59:54;11.00;99.90
26262;DHT22;13988;52.446;13.280;2023-04-25T10:02:25;10.70;99.90
26262;DHT22;13988;52.446;13.280;2023-04-25T10:04:52;10.60;99.90
26262;DHT22;13988;52.446;13.280;2023-04-25T10:07:22;10.40;99.90
26262;DHT22;13988;52.446;13.280;2023-04-25T10:09:57;10.70;99.90
26262;DHT22;13988;52.446;13.280;2023-04-25T10:12:26;11.00;99.90
26262;DHT22;13988;52.446;13.280;2023-04-25T10:14:52;10.80;99.90
26262;DHT22;13988;52.446;13.280;2023-04-25T10:17:20;10.90;99.90
26262;DHT22;13988;52.446;13.280;2023-04-25T10:19:47;10.80;99.90
26262;DHT22;13988;52.446;13.280;2023-04-25T10:22:20;10.90;99.90
26262;DHT22;13988;52.446;13.280;2023-04-25T10:24:48;10.60;99.90
26262;DHT22;13988;52.446;13.280;2023-04-25T10:27:15;10.60;99.90
26262;DHT22;13988;52.446;13.280;2023-04-25T10:29:41;11.30;99.90
26262;DHT22;13988;52.446;13.280;2023-04-25T10:32:08;11.40;99.90
26262;DHT22;13988;52.446;13.280;2023-04-25T10:37:05;11.40;99.90
26262;DHT22;13988;52.446;13.280;2023-04-25T10:39:33;11.30;99.90
26262;DHT22;13988;52.446;13.280;2023-04-25T10:42:02;10.80;99.90
26262;DHT22;13988;52.446;13.280;2023-04-25T10:44:31;10.70;99.90
26262;DHT22;13988;52.446;13.280;2023-04-25T10:46:59;10.50;99.90
26262;DHT22;13988;52.446;13.280;2023-04-25T10:55:04;10.30;99.90
26262;DHT22;13988;52.446;13.280;2023-04-25T10:57:36;10.80;99.90
26262;DHT22;13988;52.446;13.280;2023-04-25T11:00:18;11.10;99.90
26262;DHT22;13988;52.446;13.280;2023-04-25T11:02:48;11.20;99.90
26262;DHT22;13988;52.446;13.280;2023-04-25T11:05:26;11.20;99.90
26262;DHT22;13988;52.446;13.280;2023-04-25T11:07:55;10.60;99.90
26262;DHT22;13988;52.446;13.280;2023-04-25T11:10:32;10.60;99.90
26262;DHT22;13988;52.446;13.280;2023-04-25T11:12:58;10.60;99.00
26262;DHT22;13988;52.446;13.280;2023-04-25T11:15:26;10.40;99.90
26262;DHT22;13988;52.446;13.280;2023-04-25T11:17:55;10.10;99.90
26262;DHT22;13988;52.446;13.280;2023-04-25T11:20:22;9.90;99.90
26262;DHT22;13988;52.446;13.280;2023-04-25T11:22:51;9.80;99.90
26262;DHT22;13988;52.446;13.280;2023-04-25T11:25:17;9.60;99.90
26262;DHT22;13988;52.446;13.280;2023-04-25T11:27:52;9.60;99.30
26262;DHT22;13988;52.446;13.280;2023-04-25T11:30:20;9.60;99.90
26262;DHT22;13988;52.446;13.280;2023-04-25T11:32:46;9.70;99.80
26262;DHT22;13988;52.446;13.280;2023-04-25T11:35:12;9.60;99.20
26262;DHT22;13988;52.446;13.280;2023-04-25T11:37:41;9.50;97.10
26262;DHT22;13988;52.446;13.280;2023-04-25T11:40:07;9.50;95.20
26262;DHT22;13988;52.446;13.280;2023-04-25T11:42:41;9.60;94.80
26262;DHT22;13988;52.446;13.280;2023-04-25T11:45:08;9.40;93.80
26262;DHT22;13988;52.446;13.280;2023-04-25T11:47:35;9.70;94.30
26262;DHT22;13988;52.446;13.280;2023-04-25T11:50:02;9.90;94.70
26262;DHT22;13988;52.446;13.280;2023-04-25T11:52:45;10.10;93.90
26262;DHT22;13988;52.446;13.280;2023-04-25T11:55:16;9.90;93.80
26262;DHT22;13988;52.446;13.280;2023-04-25T11:57:44;10.30;94.80
26262;DHT22;13988;52.446;13.280;2023-04-25T12:00:20;10.30;94.90
26262;DHT22;13988;52.446;13.280;2023-04-25T12:02:50;10.40;95.40
26262;DHT22;13988;52.446;13.280;2023-04-25T12:05:16;10.50;95.40
26262;DHT22;13988;52.446;13.280;2023-04-25T12:07:42;10.60;96.50
26262;DHT22;13988;52.446;13.280;2023-04-25T12:10:12;10.60;96.50
26262;DHT22;13988;52.446;13.280;2023-04-25T12:12:41;10.60;95.70
26262;DHT22;13988;52.446;13.280;2023-04-25T12:15:15;10.70;95.40
26262;DHT22;13988;52.446;13.280;2023-04-25T12:17:48;10.60;96.00
26262;DHT22;13988;52.446;13.280;2023-04-25T12:20:20;10.50;92.00
26262;DHT22;13988;52.446;13.280;2023-04-25T12:22:49;10.60;91.90
26262;DHT22;13988;52.446;13.280;2023-04-25T12:25:37;10.50;91.70
26262;DHT22;13988;52.446;13.280;2023-04-25T12:28:19;10.80;91.20
26262;DHT22;13988;52.446;13.280;2023-04-25T12:30:57;11.00;92.80
26262;DHT22;13988;52.446;13.280;2023-04-25T12:33:28;11.30;92.70
26262;DHT22;13988;52.446;13.280;2023-04-25T12:35:54;11.00;92.00
26262;DHT22;13988;52.446;13.280;2023-04-25T12:38:30;11.30;91.90
26262;DHT22;13988;52.446;13.280;2023-04-25T12:40:59;10.90;91.00
26262;DHT22;13988;52.446;13.280;2023-04-25T12:43:25;10.60;92.80
26262;DHT22;13988;52.446;13.280;2023-04-25T12:45:53;10.70;93.50
26262;DHT22;13988;52.446;13.280;2023-04-25T12:48:19;10.40;93.40
26262;DHT22;13988;52.446;13.280;2023-04-25T12:50:46;10.50;94.00
26262;DHT22;13988;52.446;13.280;2023-04-25T12:53:19;10.60;94.80
26262;DHT22;13988;52.446;13.280;2023-04-25T12:55:45;10.40;94.30
26262;DHT22;13988;52.446;13.280;2023-04-25T12:58:15;10.60;94.70
26262;DHT22;13988;52.446;13.280;2023-04-25T13:00:41;10.40;94.00
26262;DHT22;13988;52.446;13.280;2023-04-25T13:03:07;10.40;93.90
26262;DHT22;13988;52.446;13.280;2023-04-25T13:05:33;10.30;93.30
26262;DHT22;13988;52.446;13.280;2023-04-25T13:07:59;10.00;92.70
26262;DHT22;13988;52.446;13.280;2023-04-25T13:10:24;10.20;92.90
26262;DHT22;13988;52.446;13.280;2023-04-25T13:12:50;10.20;92.80
26262;DHT22;13988;52.446;13.280;2023-04-25T13:15:16;10.40;93.90
26262;DHT22;13988;52.446;13.280;2023-04-25T13:17:42;11.00;91.70
26262;DHT22;13988;52.446;13.280;2023-04-25T13:20:08;11.50;90.20
26262;DHT22;13988;52.446;13.280;2023-04-25T13:22:38;11.60;90.90
26262;DHT22;13988;52.446;13.280;2023-04-25T13:25:06;11.20;90.90
26262;DHT22;13988;52.446;13.280;2023-04-25T13:27:33;11.10;90.60
26262;DHT22;13988;52.446;13.280;2023-04-25T13:30:00;11.00;91.20
26262;DHT22;13988;52.446;13.280;2023-04-25T13:32:27;10.80;91.20
26262;DHT22;13988;52.446;13.280;2023-04-25T13:34:52;10.60;91.60
26262;DHT22;13988;52.446;13.280;2023-04-25T13:37:18;10.70;92.00
26262;DHT22;13988;52.446;13.280;2023-04-25T13:39:44;10.70;91.70
26262;DHT22;13988;52.446;13.280;2023-04-25T13:42:09;10.80;91.90
26262;DHT22;13988;52.446;13.280;2023-04-25T13:44:36;10.70;92.90
26262;DHT22;13988;52.446;13.280;2023-04-25T13:47:02;10.70;91.80
26262;DHT22;13988;52.446;13.280;2023-04-25T13:49:28;10.70;91.90
26262;DHT22;13988;52.446;13.280;2023-04-25T13:51:53;10.70;93.00
26262;DHT22;13988;52.446;13.280;2023-04-25T13:54:19;10.60;93.30
26262;DHT22;13988;52.446;13.280;2023-04-25T13:56:45;10.60;94.20
26262;DHT22;13988;52.446;13.280;2023-04-25T13:59:11;10.30;94.00
26262;DHT22;13988;52.446;13.280;2023-04-25T14:01:36;10.40;94.50
26262;DHT22;13988;52.446;13.280;2023-04-25T14:04:02;10.50;95.10
26262;DHT22;13988;52.446;13.280;2023-04-25T14:06:32;10.40;94.70
26262;DHT22;13988;52.446;13.280;2023-04-25T14:08:58;10.00;94.30
26262;DHT22;13988;52.446;13.280;2023-04-25T14:11:26;9.80;95.10
26262;DHT22;13988;52.446;13.280;2023-04-25T14:13:51;9.80;95.70
26262;DHT22;13988;52.446;13.280;2023-04-25T14:16:17;9.50;95.60
26262;DHT22;13988;52.446;13.280;2023-04-25T14:18:43;9.50;95.00
26262;DHT22;13988;52.446;13.280;2023-04-25T14:21:08;9.40;94.60
26262;DHT22;13988;52.446;13.280;2023-04-25T14:23:35;9.40;95.30
26262;DHT22;13988;52.446;13.280;2023-04-25T14:26:01;9.60;96.50
26262;DHT22;13988;52.446;13.280;2023-04-25T14:28:27;9.40;95.70
26262;DHT22;13988;52.446;13.280;2023-04-25T14:30:52;9.50;97.20
26262;DHT22;13988;52.446;13.280;2023-04-25T14:33:18;9.30;96.00
26262;DHT22;13988;52.446;13.280;2023-04-25T14:35:44;9.20;96.10
26262;DHT22;13988;52.446;13.280;2023-04-25T14:38:09;9.30;95.70
26262;DHT22;13988;52.446;13.280;2023-04-25T14:40:35;9.40;95.40
26262;DHT22;13988;52.446;13.280;2023-04-25T14:43:01;9.50;96.40
26262;DHT22;13988;52.446;13.280;2023-04-25T14:45:26;9.60;96.10
26262;DHT22;13988;52.446;13.280;2023-04-25T14:47:52;9.80;96.80
26262;DHT22;13988;52.446;13.280;2023-04-25T14:50:18;10.00;97.10
26262;DHT22;13988;52.446;13.280;2023-04-25T14:52:43;10.40;97.30
26262;DHT22;13988;52.446;13.280;2023-04-25T14:55:10;10.00;96.90
26262;DHT22;13988;52.446;13.280;2023-04-25T14:57:36;9.80;96.10
26262;DHT22;13988;52.446;13.280;2023-04-25T15:00:03;9.50;97.10
26262;DHT22;13988;52.446;13.280;2023-04-25T15:02:32;9.60;97.30
26262;DHT22;13988;52.446;13.280;2023-04-25T15:04:57;9.60;98.20
26262;DHT22;13988;52.446;13.280;2023-04-25T15:07:23;9.70;98.50
26262;DHT22;13988;52.446;13.280;2023-04-25T15:09:49;9.60;99.00
26262;DHT22;13988;52.446;13.280;2023-04-25T15:12:14;9.40;98.40
26262;DHT22;13988;52.446;13.280;2023-04-25T15:14:40;9.60;98.80
26262;DHT22;13988;52.446;13.280;2023-04-25T15:17:06;9.60;99.50
26262;DHT22;13988;52.446;13.280;2023-04-25T15:19:32;9.70;99.90
26262;DHT22;13988;52.446;13.280;2023-04-25T15:21:58;9.80;99.90
26262;DHT22;13988;52.446;13.280;2023-04-25T15:24:26;9.80;99.30
26262;DHT22;13988;52.446;13.280;2023-04-25T15:26:52;9.70;99.50
26262;DHT22;13988;52.446;13.280;2023-04-25T15:29:18;10.00;99.80
26262;DHT22;13988;52.446;13.280;2023-04-25T15:31:43;10.20;99.40
26262;DHT22;13988;52.446;13.280;2023-04-25T15:34:09;10.70;98.00